createdAt,value
2022-07-29T00:01:39.084Z,101059.44
2022-07-29T00:04:29.686Z,101051.61
2022-07-29T00:07:20.780Z,101049.21
2022-07-29T00:10:11.685Z,101051.23
2022-07-29T00:13:02.506Z,101050.09
2022-07-29T00:15:53.095Z,101043.16
2022-07-29T00:18:43.840Z,101039.04
2022-07-29T00:21:35.062Z,101032.73
2022-07-29T00:24:27.959Z,101031.70
2022-07-29T00:27:18.209Z,101031.58
2022-07-29T00:30:10.183Z,101027.23
2022-07-29T00:33:01.497Z,101027.23
2022-07-29T00:35:51.583Z,101026.31
2022-07-29T00:38:46.290Z,101030.27
2022-07-29T00:41:36.946Z,101030.73
2022-07-29T00:44:27.068Z,101032.73
2022-07-29T00:47:17.780Z,101037.27
2022-07-29T00:50:10.693Z,101036.42
2022-07-29T00:53:01.219Z,101032.80
2022-07-29T00:55:52.455Z,101031.45
2022-07-29T00:58:46.519Z,101025.94
2022-07-29T01:01:37.026Z,101027.11
2022-07-29T01:04:28.244Z,101030.63
2022-07-29T01:07:19.865Z,101032.17
2022-07-29T01:10:12.546Z,101029.78
2022-07-29T01:13:03.828Z,101030.80
2022-07-29T01:16:04.107Z,101032.58
2022-07-29T01:18:59.609Z,101032.61
2022-07-29T01:21:57.837Z,101033.44
2022-07-29T01:25:05.425Z,101033.76
2022-07-29T01:28:23.676Z,101032.74
2022-07-29T01:31:25.333Z,101033.71
2022-07-29T01:34:26.304Z,101031.09
2022-07-29T01:37:22.272Z,101028.96
2022-07-29T01:40:22.252Z,101029.11
2022-07-29T01:43:16.923Z,101030.50
2022-07-29T01:46:12.142Z,101030.28
2022-07-29T01:49:11.553Z,101032.02
2022-07-29T01:52:06.375Z,101026.69
2022-07-29T01:55:01.114Z,101022.27
2022-07-29T01:57:52.391Z,101020.05
2022-07-29T02:00:44.545Z,101018.89
2022-07-29T02:03:40.246Z,101020.61
2022-07-29T02:06:33.308Z,101023.98
2022-07-29T02:09:24.707Z,101028.95
2022-07-29T02:12:17.343Z,101028.56
2022-07-29T02:15:10.885Z,101024.20
2022-07-29T02:18:08.319Z,101019.30
2022-07-29T02:21:01.796Z,101011.80
2022-07-29T02:23:53.992Z,101010.22
2022-07-29T02:26:46.789Z,101009.02
2022-07-29T02:29:38.210Z,101009.45
2022-07-29T02:32:30.592Z,101005.41
2022-07-29T02:35:22.527Z,101006.28
2022-07-29T02:38:32.238Z,100996.09
2022-07-29T02:41:26.367Z,100990.20
2022-07-29T02:44:19.287Z,100989.19
2022-07-29T02:47:18.710Z,100991.16
2022-07-29T02:50:14.313Z,100995.88
2022-07-29T02:53:10.071Z,100996.96
2022-07-29T02:56:03.904Z,100995.95
2022-07-29T02:58:59.263Z,100995.19
2022-07-29T03:01:50.779Z,100994.79
2022-07-29T03:04:45.592Z,101002.94
2022-07-29T03:07:38.560Z,101000.67
2022-07-29T03:10:30.480Z,101001.14
2022-07-29T03:13:21.214Z,100998.91
2022-07-29T03:16:14.024Z,101002.27
2022-07-29T03:19:05.361Z,100999.77
2022-07-29T03:21:58.173Z,101001.07
2022-07-29T03:24:48.478Z,101002.95
2022-07-29T03:27:39.244Z,101002.27
2022-07-29T03:30:31.729Z,100998.27
2022-07-29T03:33:22.554Z,100999.30
2022-07-29T03:36:12.856Z,101005.23
2022-07-29T03:39:04.315Z,101010.00
2022-07-29T03:41:58.873Z,101010.20
2022-07-29T03:44:53.101Z,101011.86
2022-07-29T03:47:51.089Z,101010.70
2022-07-29T03:50:42.437Z,101012.52
2022-07-29T03:53:33.387Z,101017.00
2022-07-29T03:56:26.056Z,101020.98
2022-07-29T03:59:20.748Z,101023.13
2022-07-29T04:02:14.926Z,101024.78
2022-07-29T04:05:14.032Z,101025.02
2022-07-29T04:08:04.437Z,101019.10
2022-07-29T04:10:54.989Z,101019.44
2022-07-29T04:13:45.400Z,101017.42
2022-07-29T04:16:35.581Z,101020.33
2022-07-29T04:19:25.555Z,101021.44
2022-07-29T04:22:15.502Z,101023.21
2022-07-29T04:25:06.355Z,101025.14
2022-07-29T04:28:02.579Z,101028.56
2022-07-29T04:30:55.877Z,101029.85
2022-07-29T04:33:47.558Z,101028.72
2022-07-29T04:36:38.560Z,101027.39
2022-07-29T04:39:30.477Z,101031.08
2022-07-29T04:42:27.804Z,101035.08
2022-07-29T04:45:22.322Z,101027.90
2022-07-29T04:48:13.669Z,101024.02
2022-07-29T04:51:03.521Z,101027.20
2022-07-29T04:53:54.245Z,101033.27
2022-07-29T04:56:47.446Z,101038.21
2022-07-29T04:59:38.018Z,101038.49
2022-07-29T05:02:28.777Z,101041.49
2022-07-29T05:05:19.288Z,101042.64
2022-07-29T05:08:09.475Z,101041.36
2022-07-29T05:11:11.468Z,101044.39
2022-07-29T05:14:02.686Z,101039.27
2022-07-29T05:16:54.289Z,101043.33
2022-07-29T05:19:44.900Z,101044.15
2022-07-29T05:22:35.258Z,101052.29
2022-07-29T05:25:43.139Z,101056.38
2022-07-29T05:28:37.316Z,101058.33
2022-07-29T05:31:29.146Z,101056.72
2022-07-29T05:34:19.990Z,101056.52
2022-07-29T05:37:10.822Z,101056.20
2022-07-29T05:40:01.186Z,101059.17
2022-07-29T05:42:52.751Z,101065.30
2022-07-29T05:45:49.298Z,101061.64
2022-07-29T05:48:41.553Z,101056.80
2022-07-29T05:51:32.344Z,101057.41
2022-07-29T05:54:22.754Z,101066.04
2022-07-29T05:57:17.141Z,101071.82
2022-07-29T06:00:09.172Z,101072.46
2022-07-29T06:03:04.887Z,101082.63
2022-07-29T06:05:55.357Z,101092.58
2022-07-29T06:08:45.833Z,101088.50
2022-07-29T06:11:36.844Z,101084.03
2022-07-29T06:14:27.619Z,101081.75
2022-07-29T06:17:18.895Z,101083.81
2022-07-29T06:20:10.897Z,101085.10
2022-07-29T06:23:00.999Z,101082.42
2022-07-29T06:25:51.285Z,101080.39
2022-07-29T06:28:41.695Z,101082.98
2022-07-29T06:31:32.723Z,101086.73
2022-07-29T06:34:23.147Z,101088.56
2022-07-29T06:37:15.423Z,101087.98
2022-07-29T06:40:21.642Z,101087.46
2022-07-29T06:43:12.520Z,101087.20
2022-07-29T06:46:05.148Z,101084.81
2022-07-29T06:48:56.227Z,101085.91
2022-07-29T06:51:46.439Z,101086.91
2022-07-29T06:54:37.263Z,101092.59
2022-07-29T06:57:29.040Z,101098.71
2022-07-29T07:00:21.246Z,101099.18
2022-07-29T07:03:12.427Z,101101.33
2022-07-29T07:06:02.462Z,101100.70
2022-07-29T07:08:53.072Z,101098.25
2022-07-29T07:11:43.668Z,101094.81
2022-07-29T07:14:34.744Z,101094.96
2022-07-29T07:17:25.383Z,101095.86
2022-07-29T07:20:16.385Z,101098.94
2022-07-29T07:23:07.554Z,101101.31
2022-07-29T07:25:59.405Z,101099.45
2022-07-29T07:28:49.795Z,101099.30
2022-07-29T07:31:40.780Z,101101.02
2022-07-29T07:34:31.719Z,101107.09
2022-07-29T07:37:22.123Z,101108.95
2022-07-29T07:40:18.688Z,101104.45
2022-07-29T07:43:09.648Z,101095.02
2022-07-29T07:46:02.834Z,101087.15
2022-07-29T07:48:54.801Z,101087.27
2022-07-29T07:51:50.311Z,101090.68
2022-07-29T07:54:41.814Z,101091.27
2022-07-29T07:57:32.644Z,101090.55
2022-07-29T08:00:23.700Z,101094.64
2022-07-29T08:03:17.018Z,101097.73
2022-07-29T08:06:08.665Z,101096.57
2022-07-29T08:09:19.542Z,101097.59
2022-07-29T08:12:09.809Z,101096.92
2022-07-29T08:15:02.517Z,101090.19
2022-07-29T08:17:52.591Z,101094.67
2022-07-29T08:20:43.021Z,101099.04
2022-07-29T08:23:47.062Z,101106.20
2022-07-29T08:26:40.450Z,101112.56
2022-07-29T08:29:31.949Z,101121.65
2022-07-29T08:32:50.910Z,101117.97
2022-07-29T08:35:35.681Z,101110.51
2022-07-29T08:38:28.482Z,101113.36
2022-07-29T08:41:20.136Z,101111.59
2022-07-29T08:44:11.038Z,101115.92
2022-07-29T08:47:04.307Z,101116.14
2022-07-29T08:49:54.703Z,101115.39
2022-07-29T08:52:48.061Z,101116.31
2022-07-29T08:55:41.334Z,101114.19
2022-07-29T08:58:37.001Z,101117.86
2022-07-29T09:01:35.740Z,101119.20
2022-07-29T09:04:29.729Z,101120.16
2022-07-29T09:07:20.889Z,101121.65
2022-07-29T09:10:12.233Z,101124.11
2022-07-29T09:13:02.214Z,101126.10
2022-07-29T09:15:55.061Z,101129.63
2022-07-29T09:18:47.154Z,101122.74
2022-07-29T09:22:03.000Z,101117.18
2022-07-29T09:24:56.492Z,101123.25
2022-07-29T09:27:53.687Z,101126.91
2022-07-29T09:30:54.916Z,101128.45
2022-07-29T09:33:45.522Z,101132.59
2022-07-29T09:36:43.396Z,101132.34
2022-07-29T09:39:35.526Z,101128.36
2022-07-29T09:42:34.983Z,101131.96
2022-07-29T09:45:35.906Z,101128.95
2022-07-29T09:48:27.142Z,101127.52
2022-07-29T09:51:38.027Z,101127.08
2022-07-29T09:54:29.843Z,101136.04
2022-07-29T09:57:31.418Z,101141.08
2022-07-29T10:00:26.328Z,101139.43
2022-07-29T10:03:17.128Z,101134.43
2022-07-29T10:06:12.467Z,101136.69
2022-07-29T10:09:12.385Z,101134.61
2022-07-29T10:12:15.633Z,101137.09
2022-07-29T10:15:08.285Z,101137.35
2022-07-29T10:18:00.106Z,101137.48
2022-07-29T10:20:50.764Z,101141.67
2022-07-29T10:23:46.261Z,101141.70
2022-07-29T10:26:42.297Z,101134.33
2022-07-29T10:29:33.965Z,101132.65
2022-07-29T10:32:42.642Z,101135.64
2022-07-29T10:35:44.495Z,101135.86
2022-07-29T10:39:03.249Z,101134.17
2022-07-29T10:42:09.177Z,101126.39
2022-07-29T10:44:59.967Z,101114.60
2022-07-29T10:47:50.612Z,101122.20
2022-07-29T10:51:03.918Z,101129.82
2022-07-29T10:53:55.400Z,101128.08
2022-07-29T10:56:45.731Z,101121.71
2022-07-29T10:59:38.829Z,101116.02
2022-07-29T11:02:52.387Z,101108.81
2022-07-29T11:06:00.173Z,101108.15
2022-07-29T11:09:25.884Z,101111.33
2022-07-29T11:12:50.834Z,101120.50
2022-07-29T11:15:57.329Z,101134.59
2022-07-29T11:19:26.637Z,101133.80
2022-07-29T11:22:43.031Z,101126.41
2022-07-29T11:25:50.989Z,101129.25
2022-07-29T11:28:53.155Z,101129.76
2022-07-29T11:31:47.775Z,101128.54
2022-07-29T11:34:41.852Z,101125.46
2022-07-29T11:37:33.679Z,101128.83
2022-07-29T11:40:32.809Z,101131.27
2022-07-29T11:43:50.857Z,101127.69
2022-07-29T11:46:54.064Z,101124.16
2022-07-29T11:49:49.931Z,101126.27
2022-07-29T11:52:49.955Z,101128.17
2022-07-29T11:55:50.772Z,101124.39
2022-07-29T11:58:43.427Z,101126.43
2022-07-29T12:01:34.448Z,101120.33
2022-07-29T12:04:25.889Z,101105.23
2022-07-29T12:07:17.292Z,101094.87
2022-07-29T12:10:11.301Z,101099.74
2022-07-29T12:13:06.392Z,101102.29
2022-07-29T12:16:02.326Z,101090.17
2022-07-29T12:19:02.329Z,101088.86
2022-07-29T12:21:59.877Z,101094.23
2022-07-29T12:24:54.553Z,101096.52
2022-07-29T12:27:49.815Z,101091.94
2022-07-29T12:30:45.960Z,101080.88
2022-07-29T12:33:37.906Z,101078.29
2022-07-29T12:36:27.796Z,101077.48
2022-07-29T12:39:20.954Z,101076.52
2022-07-29T12:42:18.354Z,101075.69
2022-07-29T12:45:10.580Z,101072.38
2022-07-29T12:48:01.083Z,101071.28
2022-07-29T12:50:59.684Z,101082.02
2022-07-29T12:54:08.063Z,101083.29
2022-07-29T12:57:05.704Z,101092.73
2022-07-29T13:00:15.038Z,101083.62
2022-07-29T13:03:07.285Z,101059.41
2022-07-29T13:05:59.706Z,101054.19
2022-07-29T13:09:19.807Z,101057.06
2022-07-29T13:12:12.725Z,101049.98
2022-07-29T13:15:03.141Z,101053.20
2022-07-29T13:17:54.149Z,101063.76
2022-07-29T13:20:44.030Z,101064.46
2022-07-29T13:23:38.355Z,101062.91
2022-07-29T13:26:28.994Z,101059.12
2022-07-29T13:29:18.864Z,101051.44
2022-07-29T13:32:09.508Z,101052.73
2022-07-29T13:35:05.485Z,101058.31
2022-07-29T13:37:55.803Z,101068.55
2022-07-29T13:40:47.183Z,101066.67
2022-07-29T13:43:37.744Z,101049.42
2022-07-29T13:46:27.750Z,101047.34
2022-07-29T13:49:18.291Z,101051.33
2022-07-29T13:52:08.955Z,101044.64
2022-07-29T13:54:59.649Z,101046.40
2022-07-29T13:57:50.412Z,101060.20
2022-07-29T14:00:40.594Z,101074.69
2022-07-29T14:03:31.245Z,101070.63
2022-07-29T14:06:22.295Z,101061.66
2022-07-29T14:09:12.431Z,101055.45
2022-07-29T14:12:03.631Z,101057.61
2022-07-29T14:14:54.336Z,101050.27
2022-07-29T14:17:44.619Z,101072.98
2022-07-29T14:20:35.166Z,101080.67
2022-07-29T14:23:25.643Z,101076.29
2022-07-29T14:26:21.702Z,101071.55
2022-07-29T14:29:14.611Z,101079.00
2022-07-29T14:32:04.723Z,101074.30
2022-07-29T14:34:54.864Z,101087.97
2022-07-29T14:37:44.829Z,101073.99
2022-07-29T14:40:34.596Z,101094.86
2022-07-29T14:43:24.903Z,101095.02
2022-07-29T14:46:15.090Z,101088.33
2022-07-29T14:49:06.721Z,101066.05
2022-07-29T14:51:59.789Z,101051.58
2022-07-29T14:54:50.377Z,101052.06
2022-07-29T14:57:40.304Z,101062.45
2022-07-29T15:00:33.317Z,101072.26
2022-07-29T15:03:24.406Z,101064.79
2022-07-29T15:06:14.969Z,101059.81
2022-07-29T15:09:05.095Z,101038.84
2022-07-29T15:11:55.376Z,101025.98
2022-07-29T15:14:45.700Z,101022.10
2022-07-29T15:17:35.492Z,101030.52
2022-07-29T15:20:28.145Z,101040.33
2022-07-29T15:23:17.930Z,101050.70
2022-07-29T15:26:08.488Z,101051.23
2022-07-29T15:28:58.472Z,101046.86
2022-07-29T15:31:49.738Z,101037.08
2022-07-29T15:34:40.387Z,101030.54
2022-07-29T15:37:49.372Z,101038.42
2022-07-29T15:40:42.277Z,101043.64
2022-07-29T15:43:32.297Z,101036.69
2022-07-29T15:46:40.576Z,101020.79
2022-07-29T15:49:47.164Z,101003.06
2022-07-29T15:52:39.192Z,100998.59
2022-07-29T15:55:31.682Z,100987.83
2022-07-29T15:58:21.944Z,100985.48
2022-07-29T16:01:12.397Z,100985.77
2022-07-29T16:04:03.086Z,100985.29
2022-07-29T16:06:53.600Z,100985.16
2022-07-29T16:09:46.229Z,100990.04
2022-07-29T16:12:41.413Z,100992.27
2022-07-29T16:15:31.842Z,100982.93
2022-07-29T16:18:22.323Z,100970.08
2022-07-29T16:21:20.534Z,100960.98
2022-07-29T16:24:11.266Z,100956.89
2022-07-29T16:27:01.853Z,100954.23
2022-07-29T16:29:52.694Z,100954.04
2022-07-29T16:32:43.065Z,100955.23
2022-07-29T16:35:39.258Z,100960.45
2022-07-29T16:38:30.506Z,100963.84
2022-07-29T16:41:21.211Z,100967.84
2022-07-29T16:44:12.076Z,100955.94
2022-07-29T16:47:02.294Z,100953.89
2022-07-29T16:49:54.278Z,100948.67
2022-07-29T16:52:44.913Z,100947.38
2022-07-29T16:55:35.308Z,100942.38
2022-07-29T16:58:26.142Z,100941.14
2022-07-29T17:01:18.299Z,100941.76
2022-07-29T17:04:08.823Z,100949.71
2022-07-29T17:06:59.995Z,100960.78
2022-07-29T17:09:55.433Z,100961.42
2022-07-29T17:12:46.758Z,100966.83
2022-07-29T17:15:39.714Z,100968.05
2022-07-29T17:18:30.694Z,100969.08
2022-07-29T17:21:21.366Z,100977.70
2022-07-29T17:24:12.684Z,100975.66
2022-07-29T17:27:03.243Z,100973.59
2022-07-29T17:29:53.825Z,100976.18
2022-07-29T17:32:44.324Z,100975.48
2022-07-29T17:35:53.055Z,100978.23
2022-07-29T17:38:43.324Z,100976.65
2022-07-29T17:41:34.331Z,100978.77
2022-07-29T17:44:24.864Z,100981.61
2022-07-29T17:47:16.163Z,100984.16
2022-07-29T17:50:07.546Z,100986.48
2022-07-29T17:52:58.182Z,100986.74
2022-07-29T17:55:49.726Z,100984.92
2022-07-29T17:58:41.261Z,100983.53
2022-07-29T18:01:31.522Z,100980.05
2022-07-29T18:04:23.594Z,100987.45
2022-07-29T18:07:13.826Z,100984.28
2022-07-29T18:10:05.733Z,100987.24
2022-07-29T18:12:55.558Z,100983.52
2022-07-29T18:15:46.860Z,100980.06
2022-07-29T18:18:37.070Z,100982.58
2022-07-29T18:21:37.601Z,100986.27
2022-07-29T18:24:39.317Z,100984.70
2022-07-29T18:27:30.059Z,100984.66
2022-07-29T18:30:20.587Z,100988.92
2022-07-29T18:33:28.285Z,100992.44
2022-07-29T18:36:19.610Z,100989.25
2022-07-29T18:39:10.210Z,100989.23
2022-07-29T18:42:03.229Z,100991.45
2022-07-29T18:44:53.670Z,100997.69
2022-07-29T18:47:44.219Z,101000.02
2022-07-29T18:50:38.205Z,101003.71
2022-07-29T18:53:28.347Z,101012.92
2022-07-29T18:56:18.354Z,101010.69
2022-07-29T18:59:08.366Z,101011.14
2022-07-29T19:01:59.011Z,101020.33
2022-07-29T19:04:51.099Z,101023.31
2022-07-29T19:07:41.830Z,101022.98
2022-07-29T19:10:32.449Z,101020.36
2022-07-29T19:13:23.129Z,101021.88
2022-07-29T19:16:14.375Z,101023.52
2022-07-29T19:19:06.139Z,101024.38
2022-07-29T19:21:56.570Z,101026.44
2022-07-29T19:24:47.373Z,101032.31
2022-07-29T19:27:41.539Z,101032.77
2022-07-29T19:30:32.754Z,101034.00
2022-07-29T19:33:23.286Z,101042.33
2022-07-29T19:36:14.449Z,101045.45
2022-07-29T19:39:05.014Z,101049.53
2022-07-29T19:41:59.207Z,101052.35
2022-07-29T19:44:54.026Z,101053.36
2022-07-29T19:47:46.313Z,101053.94
2022-07-29T19:50:37.097Z,101055.95
2022-07-29T19:53:27.657Z,101057.75
2022-07-29T19:56:18.350Z,101062.39
2022-07-29T19:59:10.643Z,101066.50
2022-07-29T20:02:00.843Z,101067.48
2022-07-29T20:04:51.334Z,101068.98
2022-07-29T20:07:42.169Z,101066.70
2022-07-29T20:10:35.101Z,101067.09
2022-07-29T20:13:25.490Z,101067.98
2022-07-29T20:16:15.974Z,101067.98
2022-07-29T20:19:06.623Z,101072.30
2022-07-29T20:21:56.900Z,101080.76
2022-07-29T20:24:47.414Z,101084.58
2022-07-29T20:27:40.474Z,101090.66
2022-07-29T20:30:32.907Z,101091.60
2022-07-29T20:33:23.305Z,101090.86
2022-07-29T20:36:13.296Z,101083.73
2022-07-29T20:39:05.593Z,101088.61
2022-07-29T20:41:57.699Z,101086.27
2022-07-29T20:44:49.706Z,101086.20
2022-07-29T20:47:40.586Z,101086.17
2022-07-29T20:50:30.325Z,101084.27
2022-07-29T20:53:20.722Z,101089.02
2022-07-29T20:56:12.544Z,101088.18
2022-07-29T20:59:03.365Z,101090.16
2022-07-29T21:01:55.847Z,101091.30
2022-07-29T21:04:46.877Z,101085.60
2022-07-29T21:07:37.113Z,101082.04
2022-07-29T21:10:28.521Z,101085.06
2022-07-29T21:13:18.948Z,101078.79
2022-07-29T21:16:14.742Z,101071.62
2022-07-29T21:19:05.279Z,101070.55
2022-07-29T21:21:55.123Z,101072.78
2022-07-29T21:24:44.686Z,101075.39
2022-07-29T21:27:52.647Z,101076.10
2022-07-29T21:30:42.617Z,101072.07
2022-07-29T21:33:33.851Z,101067.38
2022-07-29T21:39:33.786Z,101071.70
2022-07-29T21:42:23.820Z,101068.23
2022-07-29T21:45:15.103Z,101070.63
2022-07-29T21:48:05.605Z,101072.24
2022-07-29T21:50:53.027Z,101076.58
2022-07-29T21:53:42.898Z,101075.42
2022-07-29T21:56:34.284Z,101074.05
2022-07-29T21:59:25.487Z,101069.64
2022-07-29T22:02:16.805Z,101067.30
2022-07-29T22:05:07.108Z,101059.81
2022-07-29T22:07:57.708Z,101059.77
2022-07-29T22:10:48.307Z,101057.14
2022-07-29T22:13:39.566Z,101059.14
2022-07-29T22:16:31.101Z,101065.08
2022-07-29T22:19:21.783Z,101067.27
2022-07-29T22:22:18.225Z,101064.20
2022-07-29T22:25:10.165Z,101067.45
2022-07-29T22:28:00.219Z,101069.85
2022-07-29T22:30:50.663Z,101071.69
2022-07-29T22:33:41.210Z,101069.35
2022-07-29T22:36:31.503Z,101065.98
2022-07-29T22:39:22.261Z,101069.86
2022-07-29T22:42:14.991Z,101068.46
2022-07-29T22:45:06.882Z,101071.40
2022-07-29T22:47:59.211Z,101072.35
2022-07-29T22:50:50.678Z,101070.98
2022-07-29T22:53:41.003Z,101076.79
2022-07-29T22:56:31.807Z,101078.45
2022-07-29T22:59:21.984Z,101077.33
2022-07-29T23:02:13.503Z,101081.39
2022-07-29T23:05:03.999Z,101082.41
2022-07-29T23:07:54.031Z,101077.42
2022-07-29T23:10:44.211Z,101075.00
2022-07-29T23:13:35.438Z,101077.48
2022-07-29T23:16:26.725Z,101073.98
2022-07-29T23:19:17.483Z,101066.73
2022-07-29T23:22:09.208Z,101062.82
2022-07-29T23:24:59.575Z,101059.61
2022-07-29T23:27:52.899Z,101063.96
2022-07-29T23:30:45.972Z,101064.87
2022-07-29T23:33:36.501Z,101063.23
2022-07-29T23:36:27.221Z,101064.02
2022-07-29T23:39:18.858Z,101060.03
2022-07-29T23:42:09.781Z,101057.77
2022-07-29T23:45:00.155Z,101053.08
2022-07-29T23:47:50.724Z,101058.12
2022-07-29T23:50:41.025Z,101051.95
2022-07-29T23:53:32.438Z,101051.42
2022-07-29T23:56:23.713Z,101047.20
2022-07-29T23:59:15.275Z,101045.41
